Time;durP1;ratioP1;P1;durP2;ratioP2;P2;SDS_P1;SDS_P2;PMS_P1;PMS_P2;Temp;Humidity;BMP_temperature;BMP_pressure;BME280_temperature;BME280_humidity;BME280_pressure;Samples;Min_cycle;Max_cycle;Signal;HPM_P1;HPM_P2
2021/11/01 00:01:36;;;;;;;41.97;23.13;;;;;;;;;;5019350;28;20022;-54
2021/11/01 00:04:03;;;;;;;47.83;25.60;;;;;;;;;;5033916;28;20048;-53
2021/11/01 00:06:30;;;;;;;41.67;24.42;;;;;;;;;;5020035;28;20021;-54
2021/11/01 00:08:57;;;;;;;40.15;21.80;;;;;;;;;;5019442;28;20029;-53
2021/11/01 00:11:23;;;;;;;45.83;25.83;;;;;;;;;;5018832;28;20021;-54
2021/11/01 00:13:49;;;;;;;35.22;20.00;;;;;;;;;;5018682;28;20041;-54
2021/11/01 00:16:18;;;;;;;38.35;22.48;;;;;;;;;;5019159;28;20037;-53
2021/11/01 00:18:45;;;;;;;76.72;44.22;;;;;;;;;;5018725;28;20814;-54
2021/11/01 00:21:11;;;;;;;88.80;50.50;;;;;;;;;;5018684;28;20037;-54
2021/11/01 00:23:38;;;;;;;35.10;21.60;;;;;;;;;;5019074;28;20021;-54
2021/11/01 00:26:04;;;;;;;54.08;32.38;;;;;;;;;;5020205;28;20018;-53
2021/11/01 00:28:30;;;;;;;33.25;19.92;;;;;;;;;;5019455;28;20130;-53
2021/11/01 00:30:56;;;;;;;53.13;31.25;;;;;;;;;;5020044;28;20033;-54
2021/11/01 00:33:24;;;;;;;45.38;24.92;;;;;;;;;;5019841;28;20037;-54
2021/11/01 00:35:50;;;;;;;47.65;28.08;;;;;;;;;;5020085;28;20024;-53
2021/11/01 00:38:17;;;;;;;31.85;18.42;;;;;;;;;;5019978;28;20029;-56
2021/11/01 00:40:43;;;;;;;40.22;24.52;;;;;;;;;;5018742;28;20018;-57
2021/11/01 00:43:09;;;;;;;57.22;34.38;;;;;;;;;;5017659;28;20386;-55
2021/11/01 00:45:36;;;;;;;56.40;31.75;;;;;;;;;;5018657;28;20025;-57
2021/11/01 00:48:02;;;;;;;42.50;26.63;;;;;;;;;;5018430;28;20025;-57
2021/11/01 00:50:29;;;;;;;76.43;42.97;;;;;;;;;;5018813;28;20024;-55
2021/11/01 00:52:56;;;;;;;42.35;25.13;;;;;;;;;;5018471;28;20037;-56
2021/11/01 00:55:25;;;;;;;41.75;25.08;;;;;;;;;;5018514;28;20013;-57
2021/11/01 00:57:52;;;;;;;37.10;19.73;;;;;;;;;;5018123;28;20033;-56
2021/11/01 01:00:18;;;;;;;34.60;20.85;;;;;;;;;;5018526;28;20025;-57
2021/11/01 01:02:45;;;;;;;38.88;23.52;;;;;;;;;;5027418;28;20041;-58
2021/11/01 01:05:11;;;;;;;37.42;22.40;;;;;;;;;;5018681;28;20029;-56
2021/11/01 01:07:37;;;;;;;61.10;34.13;;;;;;;;;;5018213;28;20033;-59
2021/11/01 01:10:07;;;;;;;35.63;21.48;;;;;;;;;;5018421;28;20080;-56
2021/11/01 01:12:34;;;;;;;37.63;22.65;;;;;;;;;;5017717;28;20033;-57
2021/11/01 01:15:04;;;;;;;47.72;28.50;;;;;;;;;;5018325;28;20050;-57
2021/11/01 01:17:31;;;;;;;38.35;21.80;;;;;;;;;;5054828;28;20016;-59
2021/11/01 01:22:33;;;;;;;35.47;20.70;;;;;;;;;;5074156;28;20161;-56
2021/11/01 01:25:09;;;;;;;52.83;28.70;;;;;;;;;;5077455;28;20405;-56
2021/11/01 01:27:51;;;;;;;38.13;23.80;;;;;;;;;;5075226;28;20058;-57
2021/11/01 01:30:18;;;;;;;63.88;36.05;;;;;;;;;;5074966;28;20029;-56
2021/11/01 01:32:44;;;;;;;45.92;24.23;;;;;;;;;;5075002;28;20048;-56
2021/11/01 01:35:11;;;;;;;40.78;22.95;;;;;;;;;;5074766;28;20032;-56
2021/11/01 01:37:37;;;;;;;37.10;22.27;;;;;;;;;;5074663;28;20039;-56
2021/11/01 01:40:06;;;;;;;39.15;20.88;;;;;;;;;;5074735;28;20103;-56
2021/11/01 01:42:32;;;;;;;37.58;23.23;;;;;;;;;;5074426;28;20036;-55
2021/11/01 01:44:58;;;;;;;42.63;24.52;;;;;;;;;;5074472;28;20083;-56
2021/11/01 01:47:24;;;;;;;37.78;21.23;;;;;;;;;;5074522;28;20408;-56
2021/11/01 01:49:50;;;;;;;41.97;23.27;;;;;;;;;;5074265;28;20044;-56
2021/11/01 01:52:17;;;;;;;34.45;21.20;;;;;;;;;;5074365;28;20511;-56
2021/11/01 01:54:43;;;;;;;33.53;20.83;;;;;;;;;;5074376;28;20025;-56
2021/11/01 01:57:09;;;;;;;45.05;25.55;;;;;;;;;;5074358;28;20039;-56
2021/11/01 01:59:38;;;;;;;45.92;27.40;;;;;;;;;;5074214;28;20033;-58
2021/11/01 02:02:04;;;;;;;33.88;20.60;;;;;;;;;;5074255;28;20035;-57
2021/11/01 02:04:30;;;;;;;41.05;23.27;;;;;;;;;;5074251;28;20040;-57
2021/11/01 02:07:01;;;;;;;41.17;23.75;;;;;;;;;;5074419;28;20039;-56
2021/11/01 02:09:31;;;;;;;36.60;20.80;;;;;;;;;;5074306;28;20056;-56
2021/11/01 02:11:59;;;;;;;38.80;22.75;;;;;;;;;;5075533;28;20496;-56
2021/11/01 02:14:28;;;;;;;36.95;21.88;;;;;;;;;;5076367;28;20438;-56
2021/11/01 02:16:55;;;;;;;34.22;21.50;;;;;;;;;;5076420;28;20364;-56
2021/11/01 02:19:27;;;;;;;41.92;24.95;;;;;;;;;;5075759;28;20054;-56
2021/11/01 02:22:02;;;;;;;38.22;21.75;;;;;;;;;;5075802;28;20036;-56
2021/11/01 02:24:43;;;;;;;35.50;22.80;;;;;;;;;;5075871;28;20475;-56
2021/11/01 02:27:12;;;;;;;34.22;22.05;;;;;;;;;;5076377;28;20056;-56
2021/11/01 02:29:40;;;;;;;39.08;22.50;;;;;;;;;;5075840;28;20021;-56
2021/11/01 02:32:07;;;;;;;38.00;23.55;;;;;;;;;;5075724;28;20033;-57
2021/11/01 02:34:34;;;;;;;35.08;21.23;;;;;;;;;;5074465;28;20031;-56
2021/11/01 02:37:00;;;;;;;36.15;21.63;;;;;;;;;;5075884;28;20052;-56
2021/11/01 02:39:29;;;;;;;36.30;21.10;;;;;;;;;;5075703;28;20482;-57
2021/11/01 02:41:55;;;;;;;37.15;20.75;;;;;;;;;;5074405;28;20066;-57
2021/11/01 02:44:22;;;;;;;33.33;20.90;;;;;;;;;;5075702;28;20452;-56
2021/11/01 02:46:50;;;;;;;40.47;23.65;;;;;;;;;;5075539;28;20041;-56
2021/11/01 02:49:17;;;;;;;32.70;20.17;;;;;;;;;;5075373;28;20036;-55
2021/11/01 02:51:45;;;;;;;33.35;21.85;;;;;;;;;;5075505;28;20358;-56
2021/11/01 02:54:11;;;;;;;34.97;22.08;;;;;;;;;;5075401;28;20041;-56
2021/11/01 02:56:37;;;;;;;33.63;21.88;;;;;;;;;;5075389;28;20021;-56
2021/11/01 02:59:04;;;;;;;45.25;26.45;;;;;;;;;;5075339;28;20033;-56
2021/11/01 03:01:30;;;;;;;33.95;21.27;;;;;;;;;;5075368;28;20027;-56
2021/11/01 03:03:56;;;;;;;39.00;22.60;;;;;;;;;;5075122;28;20095;-56
2021/11/01 03:06:24;;;;;;;39.25;23.13;;;;;;;;;;5075169;28;20055;-56
2021/11/01 03:08:54;;;;;;;35.95;21.25;;;;;;;;;;5075339;28;20020;-55
2021/11/01 03:11:20;;;;;;;36.15;22.42;;;;;;;;;;5075250;28;20070;-56
2021/11/01 03:13:47;;;;;;;38.10;22.08;;;;;;;;;;5074995;28;20036;-56
2021/11/01 03:16:13;;;;;;;32.58;20.75;;;;;;;;;;5075012;28;20484;-56
2021/11/01 03:18:49;;;;;;;33.15;20.88;;;;;;;;;;5074732;28;20048;-56
2021/11/01 03:21:17;;;;;;;41.97;22.77;;;;;;;;;;5074927;28;20021;-56
2021/11/01 03:23:47;;;;;;;31.95;20.50;;;;;;;;;;5074772;28;20032;-56
2021/11/01 03:26:16;;;;;;;32.88;21.40;;;;;;;;;;5074975;28;20017;-56
2021/11/01 03:28:44;;;;;;;47.70;26.13;;;;;;;;;;5074651;28;20104;-56
2021/11/01 03:31:18;;;;;;;35.75;21.63;;;;;;;;;;5074966;28;20027;-56
2021/11/01 03:33:44;;;;;;;35.65;21.90;;;;;;;;;;5074500;28;20035;-56
2021/11/01 03:36:12;;;;;;;36.97;20.80;;;;;;;;;;5074439;28;20099;-56
2021/11/01 03:38:39;;;;;;;33.92;21.00;;;;;;;;;;5074469;28;20441;-55
2021/11/01 03:41:10;;;;;;;37.13;22.75;;;;;;;;;;5074543;28;20035;-56
2021/11/01 03:43:43;;;;;;;39.03;22.02;;;;;;;;;;5074756;28;20494;-56
2021/11/01 03:46:10;;;;;;;34.90;20.88;;;;;;;;;;5074119;28;20025;-56
2021/11/01 03:48:39;;;;;;;34.25;21.30;;;;;;;;;;5074068;28;20025;-56
2021/11/01 03:51:10;;;;;;;34.53;23.17;;;;;;;;;;5074521;28;20404;-55
2021/11/01 03:53:37;;;;;;;40.83;22.95;;;;;;;;;;5074101;28;20132;-56
2021/11/01 03:56:04;;;;;;;33.85;21.15;;;;;;;;;;5074148;28;20460;-56
2021/11/01 03:58:30;;;;;;;36.25;21.83;;;;;;;;;;5074222;28;20025;-56
2021/11/01 04:00:57;;;;;;;38.22;23.17;;;;;;;;;;5074132;28;20025;-56
2021/11/01 04:03:24;;;;;;;32.33;20.45;;;;;;;;;;5073920;28;20787;-56
2021/11/01 04:05:54;;;;;;;34.17;21.67;;;;;;;;;;5073971;28;20039;-56
2021/11/01 04:08:21;;;;;;;33.60;21.45;;;;;;;;;;5073962;28;20056;-56
2021/11/01 04:10:48;;;;;;;37.65;21.63;;;;;;;;;;5073956;28;20032;-56
2021/11/01 04:13:14;;;;;;;35.53;21.65;;;;;;;;;;5073751;28;20043;-56
2021/11/01 04:15:45;;;;;;;35.78;21.13;;;;;;;;;;5073864;28;20099;-56
2021/11/01 04:18:23;;;;;;;34.80;21.75;;;;;;;;;;5073418;28;20035;-56
2021/11/01 04:20:58;;;;;;;37.90;21.58;;;;;;;;;;5073702;28;20366;-56
2021/11/01 04:23:31;;;;;;;35.35;22.17;;;;;;;;;;5073780;28;20076;-56
2021/11/01 04:26:02;;;;;;;41.90;22.85;;;;;;;;;;5073800;28;20043;-56
2021/11/01 04:28:30;;;;;;;36.22;21.77;;;;;;;;;;5073544;28;20032;-56
2021/11/01 04:31:07;;;;;;;36.40;21.45;;;;;;;;;;5073437;28;20099;-56
2021/11/01 04:33:34;;;;;;;38.38;22.30;;;;;;;;;;5073403;28;20498;-54
2021/11/01 04:36:00;;;;;;;39.70;23.20;;;;;;;;;;5073617;28;20509;-56
2021/11/01 04:54:40;;;;;;;41.08;25.75;;;;;;;;;;5050981;28;20076;-56
2021/11/01 04:57:06;;;;;;;42.70;25.40;;;;;;;;;;5050342;28;20536;-55
2021/11/01 04:59:34;;;;;;;45.75;27.52;;;;;;;;;;5051087;28;20045;-55
2021/11/01 05:02:00;;;;;;;49.67;27.90;;;;;;;;;;5050958;28;20025;-56
2021/11/01 05:04:29;;;;;;;44.47;25.00;;;;;;;;;;5050859;28;20039;-55
2021/11/01 05:07:01;;;;;;;49.00;29.10;;;;;;;;;;5050996;28;20033;-55
2021/11/01 05:09:31;;;;;;;44.42;25.40;;;;;;;;;;5050942;28;20032;-56
2021/11/01 05:14:51;;;;;;;46.65;26.75;;;;;;;;;;5050928;28;20033;-56
2021/11/01 05:27:56;;;;;;;42.65;25.33;;;;;;;;;;5072902;28;20062;-57
2021/11/01 05:30:48;;;;;;;55.92;31.48;;;;;;;;;;5072885;28;20153;-56
2021/11/01 05:35:37;;;;;;;52.90;29.60;;;;;;;;;;5073005;28;20035;-57
2021/11/01 05:38:04;;;;;;;49.08;27.75;;;;;;;;;;5072843;28;20028;-57
2021/11/01 05:40:30;;;;;;;71.53;40.13;;;;;;;;;;5073060;28;20023;-57
2021/11/01 05:42:56;;;;;;;53.47;28.95;;;;;;;;;;5073005;28;20027;-56
2021/11/01 05:45:23;;;;;;;44.95;26.75;;;;;;;;;;5072824;28;20041;-56
2021/11/01 05:47:57;;;;;;;43.50;25.05;;;;;;;;;;5072785;28;20048;-55
2021/11/01 05:50:25;;;;;;;50.85;30.80;;;;;;;;;;5072693;28;20035;-56
2021/11/01 05:52:51;;;;;;;38.70;24.20;;;;;;;;;;5072685;28;20021;-56
2021/11/01 05:59:12;;;;;;;38.05;21.95;;;;;;;;;;5050859;28;20035;-57
2021/11/01 06:14:22;;;;;;;38.70;23.98;;;;;;;;;;5054024;28;20060;-57
2021/11/01 06:16:48;;;;;;;43.80;27.70;;;;;;;;;;5054514;28;20045;-56
2021/11/01 06:19:14;;;;;;;44.88;25.15;;;;;;;;;;5053717;28;20180;-57
2021/11/01 06:21:42;;;;;;;45.80;27.95;;;;;;;;;;5053841;28;20493;-57
2021/11/01 06:24:25;;;;;;;45.05;28.55;;;;;;;;;;5053637;28;20037;-56
2021/11/01 06:26:52;;;;;;;50.20;27.45;;;;;;;;;;5053824;28;20033;-56
2021/11/01 06:29:20;;;;;;;54.67;30.98;;;;;;;;;;5053739;28;20033;-57
2021/11/01 06:31:58;;;;;;;45.95;29.55;;;;;;;;;;5053677;28;20047;-51
2021/11/01 06:39:53;;;;;;;41.35;25.08;;;;;;;;;;5075951;28;20075;-51
2021/11/01 06:42:24;;;;;;;39.67;23.95;;;;;;;;;;5075763;28;20032;-52
2021/11/01 06:50:15;;;;;;;40.88;24.83;;;;;;;;;;5075797;28;20388;-51
2021/11/01 08:41:42;;;;;;;49.45;27.42;;;;;;;;;;5073715;28;20112;-53
2021/11/01 08:52:14;;;;;;;34.08;19.40;;;;;;;;;;5073619;28;20040;-55
2021/11/01 09:21:38;;;;;;;32.55;20.00;;;;;;;;;;5021741;28;20038;-55
2021/11/01 09:26:37;;;;;;;28.52;18.20;;;;;;;;;;5020448;28;20032;-54
2021/11/01 09:42:35;;;;;;;30.75;20.50;;;;;;;;;;5036676;28;20507;-55
2021/11/01 09:45:02;;;;;;;30.50;19.67;;;;;;;;;;5055935;28;20044;-55
2021/11/01 09:47:31;;;;;;;30.80;19.85;;;;;;;;;;5056195;28;20017;-55
2021/11/01 09:49:58;;;;;;;34.00;20.73;;;;;;;;;;5055885;28;20021;-54
2021/11/01 09:52:25;;;;;;;29.00;18.52;;;;;;;;;;5056012;28;20029;-54
2021/11/01 09:54:54;;;;;;;40.60;24.20;;;;;;;;;;5053633;28;20033;-54
2021/11/01 09:57:23;;;;;;;46.60;27.52;;;;;;;;;;5056381;28;20021;-54
2021/11/01 09:59:51;;;;;;;29.52;19.58;;;;;;;;;;5053250;28;20469;-54
2021/11/01 10:02:18;;;;;;;38.28;22.23;;;;;;;;;;5055841;28;20028;-53
2021/11/01 10:04:46;;;;;;;40.22;24.60;;;;;;;;;;5055770;28;20384;-53
2021/11/01 10:07:19;;;;;;;38.42;21.77;;;;;;;;;;5053307;28;20059;-53
2021/11/01 10:09:47;;;;;;;27.63;17.95;;;;;;;;;;5040866;28;20030;-53
2021/11/01 10:12:18;;;;;;;32.75;21.17;;;;;;;;;;5024659;28;20032;-53
2021/11/01 10:14:56;;;;;;;33.00;20.77;;;;;;;;;;5024587;28;20038;-57
2021/11/01 10:17:35;;;;;;;38.30;20.75;;;;;;;;;;5023460;28;20932;-52
2021/11/01 10:20:02;;;;;;;23.90;16.52;;;;;;;;;;5023394;28;20133;-53
2021/11/01 10:22:38;;;;;;;44.20;24.23;;;;;;;;;;5023691;28;20030;-53
2021/11/01 10:25:05;;;;;;;37.10;22.95;;;;;;;;;;5023564;28;20060;-53
2021/11/01 10:27:36;;;;;;;29.33;19.50;;;;;;;;;;5024787;28;20128;-53
2021/11/01 10:30:08;;;;;;;32.17;19.00;;;;;;;;;;5023664;28;20668;-52
2021/11/01 10:32:37;;;;;;;39.80;22.23;;;;;;;;;;5024462;28;20117;-53
2021/11/01 10:35:12;;;;;;;32.78;21.77;;;;;;;;;;5023494;28;20243;-53
2021/11/01 10:37:42;;;;;;;25.63;18.60;;;;;;;;;;5024588;28;20033;-53
2021/11/01 10:40:09;;;;;;;54.60;36.33;;;;;;;;;;5024193;28;20025;-53
2021/11/01 10:42:44;;;;;;;44.53;26.45;;;;;;;;;;5024348;28;20102;-53
2021/11/01 10:45:29;;;;;;;33.85;21.67;;;;;;;;;;5023046;28;20029;-53
2021/11/01 10:57:02;;;;;;;76.57;42.38;;;;;;;;;;5013800;28;20396;-53
2021/11/01 11:10:50;;;;;;;44.50;27.30;;;;;;;;;;5014307;28;20034;-54
2021/11/01 11:13:08;;;;;;;49.58;31.02;;;;;;;;;;5014286;28;20040;-53
2021/11/01 11:15:37;;;;;;;84.95;43.85;;;;;;;;;;5013813;28;20117;-53
2021/11/01 11:26:52;;;;;;;42.95;23.17;;;;;;;;;;4955244;28;20081;-53
2021/11/01 11:30:13;;;;;;;31.13;20.58;;;;;;;;;;4944660;28;20031;-53
2021/11/01 11:48:35;;;;;;;26.35;17.23;;;;;;;;;;4944267;28;20049;-54
2021/11/01 11:51:08;;;;;;;43.67;23.17;;;;;;;;;;4942615;28;20423;-53
2021/11/01 11:53:37;;;;;;;34.33;19.83;;;;;;;;;;4943906;28;20043;-54
2021/11/01 11:56:11;;;;;;;78.32;36.35;;;;;;;;;;4956675;28;20045;-54
2021/11/01 11:58:40;;;;;;;32.17;19.20;;;;;;;;;;5022041;28;20083;-53
2021/11/01 12:01:26;;;;;;;34.53;20.15;;;;;;;;;;5021791;28;20116;-54
2021/11/01 12:03:53;;;;;;;35.00;20.42;;;;;;;;;;5021624;28;20029;-54
2021/11/01 12:06:57;;;;;;;33.95;18.95;;;;;;;;;;5021345;28;20603;-53
2021/11/01 12:09:42;;;;;;;22.27;15.02;;;;;;;;;;5021771;28;20528;-53
2021/11/01 12:17:07;;;;;;;26.13;16.27;;;;;;;;;;5022920;28;20461;-53
2021/11/01 12:19:35;;;;;;;34.58;20.65;;;;;;;;;;5021195;28;20107;-53
2021/11/01 12:22:05;;;;;;;27.92;16.70;;;;;;;;;;5021379;28;20501;-54
2021/11/01 12:24:32;;;;;;;30.65;18.83;;;;;;;;;;5030639;28;20145;-53
2021/11/01 12:27:09;;;;;;;25.80;16.85;;;;;;;;;;5022414;28;21246;-53
2021/11/01 12:29:35;;;;;;;31.05;17.52;;;;;;;;;;5021137;28;20380;-53
2021/11/01 12:32:10;;;;;;;36.75;22.75;;;;;;;;;;5021166;28;20381;-53
2021/11/01 12:34:45;;;;;;;57.50;29.83;;;;;;;;;;5021125;28;20856;-53
2021/11/01 12:37:15;;;;;;;33.67;18.85;;;;;;;;;;5022009;28;20108;-54
2021/11/01 12:39:44;;;;;;;23.30;15.50;;;;;;;;;;5021430;28;20477;-53
2021/11/01 12:58:43;;;;;;;25.13;13.57;;;;;;;;;;5021499;28;20114;-53
2021/11/01 13:01:11;;;;;;;41.83;21.15;;;;;;;;;;5020849;28;20041;-54
2021/11/01 13:03:38;;;;;;;33.95;16.88;;;;;;;;;;5020767;28;21278;-54
2021/11/01 13:06:11;;;;;;;26.70;15.63;;;;;;;;;;5022366;28;20183;-54
2021/11/01 13:08:49;;;;;;;33.35;17.42;;;;;;;;;;5020759;28;20022;-54
2021/11/01 13:14:13;;;;;;;30.80;18.13;;;;;;;;;;5020873;28;20397;-54
2021/11/01 13:19:22;;;;;;;32.60;16.35;;;;;;;;;;5023038;28;20100;-53
2021/11/01 13:22:03;;;;;;;47.45;19.73;;;;;;;;;;5024508;28;20026;-54
2021/11/01 13:24:38;;;;;;;38.13;19.73;;;;;;;;;;5025627;28;20473;-52
2021/11/01 13:27:26;;;;;;;42.33;23.60;;;;;;;;;;5024759;28;20624;-52
2021/11/01 13:35:41;;;;;;;35.88;23.35;;;;;;;;;;5025026;28;20047;-52
2021/11/01 13:38:07;;;;;;;47.47;30.13;;;;;;;;;;5024450;28;20041;-55
2021/11/01 13:40:34;;;;;;;35.10;19.17;;;;;;;;;;5024448;28;20032;-51
2021/11/01 13:43:00;;;;;;;33.58;19.35;;;;;;;;;;5025152;28;20075;-52
2021/11/01 13:45:27;;;;;;;32.28;17.45;;;;;;;;;;5024768;28;20017;-51
2021/11/01 13:47:58;;;;;;;30.58;17.08;;;;;;;;;;5024592;28;20359;-52
2021/11/01 13:50:29;;;;;;;27.03;17.30;;;;;;;;;;5025185;28;20401;-51
2021/11/01 13:53:10;;;;;;;34.90;20.02;;;;;;;;;;5024788;28;20029;-50
2021/11/01 14:00:49;;;;;;;32.30;18.33;;;;;;;;;;5024705;28;20026;-53
2021/11/01 14:11:42;;;;;;;119.40;67.00;;;;;;;;;;5026091;28;20036;-51
2021/11/01 14:14:19;;;;;;;36.78;17.42;;;;;;;;;;5025075;28;20112;-52
2021/11/01 14:17:00;;;;;;;31.02;15.35;;;;;;;;;;5024055;28;20033;-51
2021/11/01 15:16:39;;;;;;;36.50;20.70;;;;;;;;;;5024753;28;20098;-51
2021/11/01 16:18:45;;;;;;;80.68;47.95;;;;;;;;;;5021464;28;20354;-55
2021/11/01 16:21:11;;;;;;;73.95;45.53;;;;;;;;;;5022171;28;20057;-53
2021/11/01 16:23:38;;;;;;;74.50;42.13;;;;;;;;;;5023144;28;20023;-55
2021/11/01 16:26:25;;;;;;;80.55;47.25;;;;;;;;;;5024066;28;20022;-55
2021/11/01 16:28:56;;;;;;;102.95;61.88;;;;;;;;;;5021844;28;20024;-56
2021/11/01 16:34:06;;;;;;;89.05;54.42;;;;;;;;;;5021754;28;20029;-57
2021/11/01 16:39:06;;;;;;;145.57;88.78;;;;;;;;;;5023723;28;20029;-59
2021/11/01 16:41:32;;;;;;;160.73;99.47;;;;;;;;;;5021326;28;20070;-56
2021/11/01 16:44:08;;;;;;;102.30;55.33;;;;;;;;;;5021581;28;20017;-56
2021/11/01 16:46:35;;;;;;;86.22;49.28;;;;;;;;;;5023200;28;20059;-57
2021/11/01 16:49:02;;;;;;;100.47;54.83;;;;;;;;;;5021720;28;20033;-57
2021/11/01 16:51:30;;;;;;;98.40;52.10;;;;;;;;;;5022531;28;20091;-57
2021/11/01 16:53:57;;;;;;;96.30;51.50;;;;;;;;;;5021709;28;20070;-57
2021/11/01 16:56:50;;;;;;;95.82;52.97;;;;;;;;;;5021141;28;20029;-57
2021/11/01 16:59:31;;;;;;;73.68;41.20;;;;;;;;;;5020975;28;20281;-57
2021/11/01 17:04:51;;;;;;;71.03;40.70;;;;;;;;;;5022361;28;20086;-57
2021/11/01 17:07:33;;;;;;;63.33;38.40;;;;;;;;;;5021497;28;20025;-57
2021/11/01 17:34:39;;;;;;;80.88;43.42;;;;;;;;;;5052995;28;20040;-56
2021/11/01 17:37:32;;;;;;;61.13;35.60;;;;;;;;;;5053005;28;20401;-56
2021/11/01 18:51:15;;;;;;;60.38;33.72;;;;;;;;;;5020290;28;20512;-53
2021/11/01 18:53:49;;;;;;;57.35;33.58;;;;;;;;;;5020287;28;20083;-54
2021/11/01 18:56:15;;;;;;;54.03;32.70;;;;;;;;;;5020412;28;20071;-54
2021/11/01 18:58:43;;;;;;;54.97;31.88;;;;;;;;;;5020255;28;20021;-53
2021/11/01 19:01:10;;;;;;;55.13;34.33;;;;;;;;;;5020529;28;20036;-54
2021/11/01 19:03:42;;;;;;;49.80;31.60;;;;;;;;;;5019861;28;20203;-53
2021/11/01 19:06:21;;;;;;;53.17;32.85;;;;;;;;;;5019739;28;20038;-53
2021/11/01 20:09:54;;;;;;;51.28;31.73;;;;;;;;;;5018741;28;20032;-54
2021/11/01 20:12:28;;;;;;;54.72;31.00;;;;;;;;;;5019243;28;20750;-54
2021/11/01 21:27:13;;;;;;;41.47;25.67;;;;;;;;;;5050161;28;20048;-53
2021/11/01 21:29:40;;;;;;;37.28;23.80;;;;;;;;;;5050015;28;20098;-53
2021/11/01 21:32:06;;;;;;;39.47;25.45;;;;;;;;;;5049150;28;20578;-54
2021/11/01 21:34:38;;;;;;;37.50;25.30;;;;;;;;;;5048799;28;20040;-53
2021/11/01 21:37:05;;;;;;;44.40;25.23;;;;;;;;;;5049185;28;20037;-54
2021/11/01 21:39:31;;;;;;;39.53;25.23;;;;;;;;;;5049677;28;20059;-54
2021/11/01 21:41:58;;;;;;;41.13;25.42;;;;;;;;;;5053046;28;20343;-54
2021/11/01 21:44:26;;;;;;;40.83;25.73;;;;;;;;;;5053664;28;20025;-53
2021/11/01 21:46:53;;;;;;;40.80;25.55;;;;;;;;;;5052014;28;20032;-54
2021/11/01 21:49:19;;;;;;;38.00;24.92;;;;;;;;;;5052361;28;20086;-54
2021/11/01 21:51:45;;;;;;;37.75;24.10;;;;;;;;;;5050114;28;20685;-54
2021/11/01 21:54:26;;;;;;;42.35;25.17;;;;;;;;;;5053190;28;20111;-53
2021/11/01 21:56:58;;;;;;;41.60;26.10;;;;;;;;;;5050776;28;20408;-53
2021/11/01 21:59:46;;;;;;;43.55;25.92;;;;;;;;;;5053090;28;20029;-53
2021/11/01 22:23:42;;;;;;;38.67;23.70;;;;;;;;;;5052031;28;20033;-52
2021/11/01 22:45:31;;;;;;;41.72;26.00;;;;;;;;;;5008274;28;20069;-53
2021/11/01 22:58:26;;;;;;;53.70;29.83;;;;;;;;;;5010976;28;20470;-52
2021/11/01 23:00:57;;;;;;;44.40;27.77;;;;;;;;;;5010587;28;20046;-51
2021/11/01 23:03:40;;;;;;;38.10;23.65;;;;;;;;;;5010759;28;20390;-50
2021/11/01 23:33:22;;;;;;;38.85;22.42;;;;;;;;;;5052696;28;20079;-52
2021/11/01 23:35:52;;;;;;;32.47;22.52;;;;;;;;;;5051339;28;20040;-52
2021/11/01 23:38:18;;;;;;;34.63;22.40;;;;;;;;;;5048349;28;20036;-51
2021/11/01 23:40:45;;;;;;;40.17;25.42;;;;;;;;;;5051745;28;20046;-51
2021/11/01 23:43:13;;;;;;;36.15;21.67;;;;;;;;;;5052062;28;20108;-51
2021/11/01 23:45:41;;;;;;;37.88;22.80;;;;;;;;;;5051794;28;20082;-51
2021/11/01 23:48:07;;;;;;;38.38;25.08;;;;;;;;;;5051490;28;20166;-50
2021/11/01 23:50:34;;;;;;;38.05;22.77;;;;;;;;;;5051290;28;20036;-52
2021/11/01 23:53:14;;;;;;;35.10;23.58;;;;;;;;;;5054502;28;20021;-52
2021/11/01 23:55:43;;;;;;;34.17;22.02;;;;;;;;;;5054105;28;20033;-51
2021/11/01 23:58:09;;;;;;;33.50;20.38;;;;;;;;;;5054201;28;20469;-52
